createdAt,value
2022-12-01T00:01:02.276Z,101766.03
2022-12-01T00:03:33.338Z,101762.63
2022-12-01T00:06:08.006Z,101765.94
2022-12-01T00:08:35.066Z,101764.34
2022-12-01T00:11:10.223Z,101773.75
2022-12-01T00:13:37.121Z,101771.69
2022-12-01T00:16:14.403Z,101775.09
2022-12-01T00:18:41.347Z,101775.13
2022-12-01T00:21:14.765Z,101772.94
2022-12-01T00:23:45.037Z,101774.50
2022-12-01T00:26:11.533Z,101780.56
2022-12-01T00:28:38.000Z,101773.91
2022-12-01T00:31:12.270Z,101780.56
2022-12-01T00:33:39.794Z,101766.31
2022-12-01T00:36:07.237Z,101768.00
2022-12-01T00:38:34.444Z,101769.91
2022-12-01T00:41:01.127Z,101772.72
2022-12-01T00:43:27.669Z,101776.47
2022-12-01T00:45:55.226Z,101769.47
2022-12-01T00:48:22.493Z,101773.41
2022-12-01T00:50:51.669Z,101769.78
2022-12-01T00:53:18.264Z,101748.22
2022-12-01T00:55:45.026Z,101763.38
2022-12-01T00:58:11.579Z,101757.88
2022-12-01T01:00:38.760Z,101763.03
2022-12-01T01:03:06.802Z,101746.38
2022-12-01T01:05:40.345Z,101747.47
2022-12-01T01:08:08.972Z,101737.63
2022-12-01T01:10:40.704Z,101733.66
2022-12-01T01:13:07.433Z,101748.22
2022-12-01T01:15:34.216Z,101745.50
2022-12-01T01:18:01.346Z,101742.47
2022-12-01T01:20:28.297Z,101749.03
2022-12-01T01:22:54.814Z,101749.28
2022-12-01T01:25:21.613Z,101750.03
2022-12-01T01:27:48.224Z,101744.31
2022-12-01T01:30:15.524Z,101748.50
2022-12-01T01:32:42.006Z,101741.06
2022-12-01T01:35:08.935Z,101739.47
2022-12-01T01:37:35.426Z,101739.41
2022-12-01T01:40:01.942Z,101737.91
2022-12-01T01:42:28.509Z,101742.09
2022-12-01T01:44:58.044Z,101737.72
2022-12-01T01:47:36.123Z,101745.22
2022-12-01T01:50:09.809Z,101749.38
2022-12-01T01:52:43.267Z,101743.31
2022-12-01T01:55:10.101Z,101748.72
2022-12-01T01:57:37.795Z,101747.13
2022-12-01T02:00:10.065Z,101741.75
2022-12-01T02:02:44.760Z,101756.03
2022-12-01T02:05:17.285Z,101748.59
2022-12-01T02:07:45.528Z,101753.38
2022-12-01T02:10:15.328Z,101751.25
2022-12-01T02:13:06.537Z,101754.28
2022-12-01T02:15:35.931Z,101755.03
2022-12-01T02:18:44.185Z,101756.28
2022-12-01T02:21:29.738Z,101751.84
2022-12-01T02:23:56.149Z,101744.06
2022-12-01T02:26:43.930Z,101744.06
2022-12-01T02:29:16.618Z,101744.19
2022-12-01T02:31:55.279Z,101742.63
2022-12-01T02:34:29.026Z,101737.22
2022-12-01T02:37:09.159Z,101742.84
2022-12-01T02:39:47.823Z,101733.66
2022-12-01T02:42:40.286Z,101736.25
2022-12-01T02:45:14.047Z,101736.75
2022-12-01T02:47:42.031Z,101731.25
2022-12-01T02:50:10.716Z,101732.25
2022-12-01T02:52:38.674Z,101735.91
2022-12-01T02:55:05.847Z,101740.88
2022-12-01T02:57:32.335Z,101730.09
2022-12-01T03:00:00.328Z,101733.03
2022-12-01T03:02:53.220Z,101740.53
2022-12-01T03:05:25.100Z,101732.84
2022-12-01T03:07:58.577Z,101734.28
2022-12-01T03:10:32.168Z,101735.75
2022-12-01T03:13:15.826Z,101730.00
2022-12-01T03:16:10.268Z,101726.00
2022-12-01T03:18:40.717Z,101731.38
2022-12-01T03:21:12.395Z,101718.41
2022-12-01T03:23:58.439Z,101728.69
2022-12-01T03:26:29.379Z,101727.09
2022-12-01T03:28:58.771Z,101720.72
2022-12-01T03:31:33.114Z,101724.16
2022-12-01T03:34:08.033Z,101718.13
2022-12-01T03:36:42.719Z,101718.88
2022-12-01T03:39:15.358Z,101728.38
2022-12-01T03:41:48.527Z,101728.66
2022-12-01T03:44:20.577Z,101724.22
2022-12-01T03:47:24.926Z,101723.78
2022-12-01T03:49:54.114Z,101718.97
2022-12-01T03:52:58.028Z,101722.72
2022-12-01T03:55:28.240Z,101717.56
2022-12-01T03:58:22.461Z,101719.31
2022-12-01T04:00:53.275Z,101719.47
2022-12-01T04:03:25.000Z,101712.91
2022-12-01T04:05:51.884Z,101719.03
2022-12-01T04:08:18.790Z,101720.28
2022-12-01T04:10:45.290Z,101716.63
2022-12-01T04:13:23.214Z,101714.66
2022-12-01T04:15:54.476Z,101722.25
2022-12-01T04:18:21.533Z,101723.75
2022-12-01T04:20:49.298Z,101718.81
2022-12-01T04:23:35.863Z,101723.75
2022-12-01T04:26:04.738Z,101711.25
2022-12-01T04:28:31.708Z,101710.88
2022-12-01T04:30:58.361Z,101718.13
2022-12-01T04:33:24.968Z,101716.88
2022-12-01T04:35:59.382Z,101717.63
2022-12-01T04:38:30.643Z,101708.72
2022-12-01T04:40:57.493Z,101718.34
2022-12-01T04:43:24.020Z,101725.25
2022-12-01T04:45:50.523Z,101718.41
2022-12-01T04:48:17.006Z,101721.53
2022-12-01T04:50:43.496Z,101735.19
2022-12-01T04:53:10.024Z,101731.63
2022-12-01T04:55:39.032Z,101728.56
2022-12-01T04:58:06.061Z,101731.09
2022-12-01T05:00:33.128Z,101730.44
2022-12-01T05:03:00.190Z,101731.34
2022-12-01T05:05:26.773Z,101729.78
2022-12-01T05:07:53.352Z,101730.66
2022-12-01T05:10:20.206Z,101733.81
2022-12-01T05:12:46.734Z,101736.47
2022-12-01T05:15:13.694Z,101737.25
2022-12-01T05:17:40.342Z,101733.06
2022-12-01T05:20:26.297Z,101733.69
2022-12-01T05:23:09.816Z,101732.31
2022-12-01T05:25:39.427Z,101728.91
2022-12-01T05:28:06.668Z,101737.72
2022-12-01T05:30:33.174Z,101720.56
2022-12-01T05:32:59.855Z,101730.88
2022-12-01T05:35:26.438Z,101731.59
2022-12-01T05:37:52.959Z,101731.88
2022-12-01T05:40:19.586Z,101737.25
2022-12-01T05:42:46.182Z,101731.88
2022-12-01T05:45:12.767Z,101740.06
2022-12-01T05:47:39.258Z,101741.66
2022-12-01T05:50:06.537Z,101734.66
2022-12-01T05:52:34.855Z,101745.06
2022-12-01T05:55:02.387Z,101741.66
2022-12-01T05:57:28.870Z,101735.28
2022-12-01T05:59:55.407Z,101737.75
2022-12-01T06:02:22.012Z,101742.03
2022-12-01T06:04:48.602Z,101730.28
2022-12-01T06:07:15.106Z,101741.94
2022-12-01T06:09:41.608Z,101736.00
2022-12-01T06:12:08.157Z,101745.78
2022-12-01T06:14:34.622Z,101745.00
2022-12-01T06:17:01.223Z,101737.72
2022-12-01T06:19:27.747Z,101736.91
2022-12-01T06:21:54.345Z,101737.63
2022-12-01T06:24:20.875Z,101737.22
2022-12-01T06:26:47.359Z,101736.09
2022-12-01T06:29:14.162Z,101737.72
2022-12-01T06:31:40.702Z,101739.16
2022-12-01T06:34:07.221Z,101735.50
2022-12-01T06:36:33.725Z,101731.22
2022-12-01T06:39:00.536Z,101737.22
2022-12-01T06:41:27.138Z,101728.03
2022-12-01T06:43:54.740Z,101732.81
2022-12-01T06:46:21.338Z,101727.94
2022-12-01T06:48:49.194Z,101730.31
2022-12-01T06:51:15.887Z,101734.06
2022-12-01T06:53:42.344Z,101740.44
2022-12-01T06:56:08.987Z,101740.91
2022-12-01T06:58:35.856Z,101736.41
2022-12-01T07:01:09.724Z,101736.53
2022-12-01T07:03:36.422Z,101736.81
2022-12-01T07:06:03.571Z,101734.84
2022-12-01T07:08:32.146Z,101737.75
2022-12-01T07:11:03.380Z,101743.44
2022-12-01T07:13:33.300Z,101738.25
2022-12-01T07:16:00.187Z,101733.97
2022-12-01T07:18:26.723Z,101742.91
2022-12-01T07:20:53.230Z,101740.34
2022-12-01T07:23:21.447Z,101735.56
2022-12-01T07:25:47.975Z,101731.72
2022-12-01T07:28:14.551Z,101729.66
2022-12-01T07:30:41.062Z,101738.47
2022-12-01T07:33:07.552Z,101730.34
2022-12-01T07:35:34.196Z,101737.25
2022-12-01T07:38:00.670Z,101739.78
2022-12-01T07:40:27.319Z,101735.03
2022-12-01T07:42:53.887Z,101721.38
2022-12-01T07:45:20.372Z,101736.97
2022-12-01T07:47:46.898Z,101737.31
2022-12-01T07:50:13.610Z,101739.72
2022-12-01T07:52:40.098Z,101733.81
2022-12-01T07:55:07.024Z,101742.69
2022-12-01T07:57:33.583Z,101736.81
2022-12-01T08:00:00.199Z,101738.00
2022-12-01T08:02:26.743Z,101737.13
2022-12-01T08:04:53.259Z,101724.13
2022-12-01T08:07:19.829Z,101737.75
2022-12-01T08:09:46.556Z,101736.03
2022-12-01T08:12:13.219Z,101737.34
2022-12-01T08:14:39.843Z,101732.06
2022-12-01T08:17:06.358Z,101734.88
2022-12-01T08:19:32.909Z,101733.66
2022-12-01T08:21:59.495Z,101730.22
2022-12-01T08:24:26.288Z,101739.34
2022-12-01T08:26:52.856Z,101739.00
2022-12-01T08:29:20.517Z,101741.22
2022-12-01T08:31:48.459Z,101729.88
2022-12-01T08:34:15.266Z,101738.84
2022-12-01T08:36:41.848Z,101734.94
2022-12-01T08:39:09.102Z,101732.19
2022-12-01T08:41:35.703Z,101741.75
2022-12-01T08:44:02.222Z,101752.53
2022-12-01T08:46:32.464Z,101752.59
2022-12-01T08:48:59.234Z,101740.88
2022-12-01T08:51:26.663Z,101742.97
2022-12-01T08:53:55.710Z,101741.81
2022-12-01T08:56:25.355Z,101739.69
2022-12-01T08:58:51.994Z,101744.31
2022-12-01T09:01:19.475Z,101746.03
2022-12-01T09:03:46.614Z,101747.75
2022-12-01T09:06:16.784Z,101751.03
2022-12-01T09:08:43.969Z,101750.91
2022-12-01T09:11:13.878Z,101750.56
2022-12-01T09:13:41.725Z,101746.63
2022-12-01T09:16:12.620Z,101753.47
2022-12-01T09:18:39.567Z,101752.53
2022-12-01T09:21:18.534Z,101754.13
2022-12-01T09:23:45.343Z,101751.81
2022-12-01T09:26:13.922Z,101745.41
2022-12-01T09:28:40.895Z,101751.69
2022-12-01T09:31:09.588Z,101748.97
2022-12-01T09:33:36.754Z,101734.88
2022-12-01T09:36:04.844Z,101752.88
2022-12-01T09:38:33.816Z,101747.47
2022-12-01T09:41:04.540Z,101740.16
2022-12-01T09:43:51.278Z,101739.66
2022-12-01T09:46:27.231Z,101746.63
2022-12-01T09:48:57.384Z,101739.22
2022-12-01T09:51:28.264Z,101740.13
2022-12-01T09:53:58.762Z,101736.56
2022-12-01T09:56:29.268Z,101743.19
2022-12-01T09:59:01.057Z,101738.31
2022-12-01T10:01:38.409Z,101741.22
2022-12-01T10:04:24.048Z,101745.34
2022-12-01T10:07:02.772Z,101733.69
2022-12-01T10:09:43.850Z,101734.19
2022-12-01T10:12:19.446Z,101734.94
2022-12-01T10:14:47.671Z,101734.16
2022-12-01T10:17:22.878Z,101732.81
2022-12-01T10:20:20.263Z,101735.28
2022-12-01T10:23:00.454Z,101725.09
2022-12-01T10:25:32.495Z,101721.19
2022-12-01T10:28:50.506Z,101723.69
2022-12-01T10:31:35.519Z,101723.66
2022-12-01T10:34:09.478Z,101706.72
2022-12-01T10:36:36.246Z,101705.28
2022-12-01T10:39:08.847Z,101709.19
2022-12-01T10:41:39.274Z,101710.19
2022-12-01T10:44:07.129Z,101707.09
2022-12-01T10:46:45.631Z,101711.63
2022-12-01T10:49:14.501Z,101700.31
2022-12-01T10:51:51.808Z,101709.19
2022-12-01T10:54:19.082Z,101705.16
2022-12-01T10:56:48.913Z,101704.16
2022-12-01T10:59:36.401Z,101695.59
2022-12-01T11:02:05.380Z,101692.19
2022-12-01T11:04:45.330Z,101693.00
2022-12-01T11:07:22.617Z,101694.97
2022-12-01T11:10:13.776Z,101695.22
2022-12-01T11:12:41.220Z,101688.00
2022-12-01T11:15:08.810Z,101689.72
2022-12-01T11:17:40.263Z,101680.09
2022-12-01T11:20:31.160Z,101677.41
2022-12-01T11:23:09.844Z,101682.22
2022-12-01T11:25:36.696Z,101681.88
2022-12-01T11:28:04.653Z,101673.09
2022-12-01T11:30:32.888Z,101678.72
2022-12-01T11:33:03.593Z,101679.69
2022-12-01T11:35:33.210Z,101682.38
2022-12-01T11:40:57.691Z,101680.81
2022-12-01T11:43:31.925Z,101677.25
2022-12-01T11:46:03.841Z,101690.88
2022-12-01T11:48:34.595Z,101688.53
2022-12-01T11:51:32.996Z,101683.13
2022-12-01T11:54:22.218Z,101690.50
2022-12-01T11:57:17.446Z,101680.69
2022-12-01T11:59:36.881Z,101677.59
2022-12-01T12:02:36.178Z,101681.06
2022-12-01T12:05:13.088Z,101667.31
2022-12-01T12:07:58.186Z,101672.19
2022-12-01T12:10:33.786Z,101664.22
2022-12-01T12:13:05.515Z,101668.41
2022-12-01T12:15:57.932Z,101670.34
2022-12-01T12:19:02.770Z,101676.00
2022-12-01T12:21:41.754Z,101668.19
2022-12-01T12:24:50.095Z,101673.19
2022-12-01T12:27:41.400Z,101679.47
2022-12-01T12:30:21.886Z,101669.31
2022-12-01T12:33:01.598Z,101665.47
2022-12-01T12:35:40.779Z,101668.22
2022-12-01T12:38:31.956Z,101667.84
2022-12-01T12:41:39.238Z,101656.75
2022-12-01T12:44:37.063Z,101655.69
2022-12-01T12:47:22.710Z,101659.81
2022-12-01T12:50:12.632Z,101657.97
2022-12-01T12:52:46.125Z,101656.91
2022-12-01T12:55:13.759Z,101672.88
2022-12-01T12:57:47.039Z,101666.50
2022-12-01T13:00:19.290Z,101668.22
2022-12-01T13:03:11.577Z,101666.88
2022-12-01T13:06:13.517Z,101664.84
2022-12-01T13:08:50.085Z,101666.97
2022-12-01T13:11:24.045Z,101664.72
2022-12-01T13:14:18.715Z,101673.97
2022-12-01T13:16:50.370Z,101677.38
2022-12-01T13:19:31.044Z,101663.56
2022-12-01T13:22:00.436Z,101652.34
2022-12-01T13:24:29.465Z,101662.63
2022-12-01T13:27:03.362Z,101656.97
2022-12-01T13:29:37.505Z,101650.28
2022-12-01T13:32:35.088Z,101654.31
2022-12-01T13:35:06.484Z,101661.25
2022-12-01T13:37:37.011Z,101657.81
2022-12-01T13:40:23.388Z,101653.31
2022-12-01T13:43:07.050Z,101647.63
2022-12-01T13:45:38.600Z,101638.69
2022-12-01T13:48:08.769Z,101642.72
2022-12-01T13:50:43.113Z,101644.97
2022-12-01T13:53:32.738Z,101643.72
2022-12-01T13:56:27.371Z,101649.66
2022-12-01T13:58:54.724Z,101647.72
2022-12-01T14:01:21.705Z,101654.78
2022-12-01T14:04:02.646Z,101651.41
2022-12-01T14:06:51.410Z,101652.56
2022-12-01T14:09:37.794Z,101652.81
2022-12-01T14:12:06.344Z,101658.47
2022-12-01T14:14:37.952Z,101655.06
2022-12-01T14:17:05.413Z,101652.03
2022-12-01T14:19:42.353Z,101656.53
2022-12-01T14:22:28.789Z,101665.47
2022-12-01T14:24:55.624Z,101660.97
2022-12-01T14:27:43.687Z,101657.28
2022-12-01T14:30:41.510Z,101666.47
2022-12-01T14:33:39.413Z,101664.41
2022-12-01T14:36:25.353Z,101668.94
2022-12-01T14:38:58.149Z,101659.75
2022-12-01T14:41:27.851Z,101651.94
2022-12-01T14:44:06.683Z,101657.34
2022-12-01T14:46:39.985Z,101661.97
2022-12-01T14:49:12.783Z,101650.19
2022-12-01T14:51:47.402Z,101655.13
2022-12-01T14:54:29.058Z,101657.00
2022-12-01T14:57:04.345Z,101656.47
2022-12-01T14:59:32.702Z,101657.78
2022-12-01T15:02:09.287Z,101662.72
2022-12-01T15:05:12.610Z,101668.94
2022-12-01T15:07:41.837Z,101664.94
2022-12-01T15:10:22.271Z,101661.03
2022-12-01T15:12:50.352Z,101652.94
2022-12-01T15:15:26.273Z,101654.53
2022-12-01T15:17:55.782Z,101651.59
2022-12-01T15:20:34.814Z,101651.22
2022-12-01T15:23:08.178Z,101645.25
2022-12-01T15:25:37.054Z,101653.44
2022-12-01T15:28:13.309Z,101649.91
2022-12-01T15:30:42.589Z,101646.72
2022-12-01T15:33:27.842Z,101654.69
2022-12-01T15:35:56.693Z,101646.50
2022-12-01T15:38:28.431Z,101644.63
2022-12-01T15:43:43.393Z,101650.03
2022-12-01T15:46:19.363Z,101655.66
2022-12-01T15:48:45.901Z,101646.97
2022-12-01T15:51:27.171Z,101652.72
2022-12-01T15:53:58.199Z,101676.44
2022-12-01T15:56:26.178Z,101652.47
2022-12-01T15:58:57.009Z,101662.47
2022-12-01T16:01:29.831Z,101664.22
2022-12-01T16:04:03.856Z,101667.00
2022-12-01T16:06:33.224Z,101662.81
2022-12-01T16:09:25.695Z,101668.84
2022-12-01T16:12:16.574Z,101669.56
2022-12-01T16:15:01.467Z,101670.06
2022-12-01T16:17:40.928Z,101669.56
2022-12-01T16:20:31.051Z,101666.88
2022-12-01T16:23:03.931Z,101670.31
2022-12-01T16:25:43.617Z,101670.91
2022-12-01T16:28:23.173Z,101675.53
2022-12-01T16:30:50.518Z,101670.06
2022-12-01T16:33:21.869Z,101675.44
2022-12-01T16:35:49.029Z,101676.53
2022-12-01T16:38:23.786Z,101680.53
2022-12-01T16:40:59.088Z,101678.88
2022-12-01T16:43:27.465Z,101680.81
2022-12-01T16:46:03.329Z,101683.88
2022-12-01T16:48:31.311Z,101680.81
2022-12-01T16:51:02.994Z,101692.50
2022-12-01T16:53:29.516Z,101681.53
2022-12-01T16:55:59.890Z,101680.44
2022-12-01T16:58:26.674Z,101675.50
2022-12-01T17:00:53.765Z,101674.06
2022-12-01T17:03:23.742Z,101676.63
2022-12-01T17:05:50.853Z,101681.34
2022-12-01T17:08:17.801Z,101678.81
2022-12-01T17:10:48.304Z,101674.28
2022-12-01T17:13:14.922Z,101680.88
2022-12-01T17:15:46.026Z,101683.53
2022-12-01T17:18:13.806Z,101676.44
2022-12-01T17:20:40.326Z,101675.84
2022-12-01T17:23:07.407Z,101673.88
2022-12-01T17:25:34.285Z,101675.69
2022-12-01T17:28:01.987Z,101686.47
2022-12-01T17:30:28.530Z,101677.00
2022-12-01T17:32:54.996Z,101688.81
2022-12-01T17:35:25.017Z,101684.06
2022-12-01T17:37:51.529Z,101683.22
2022-12-01T17:40:18.226Z,101680.16
2022-12-01T17:42:50.152Z,101676.03
2022-12-01T17:45:18.191Z,101676.00
2022-12-01T17:47:44.822Z,101682.97
2022-12-01T17:50:11.620Z,101682.09
2022-12-01T17:52:38.215Z,101685.34
2022-12-01T17:55:05.173Z,101681.13
2022-12-01T17:57:31.654Z,101681.63
2022-12-01T17:59:58.192Z,101674.88
2022-12-01T18:02:24.721Z,101669.75
2022-12-01T18:04:51.586Z,101677.72
2022-12-01T18:07:18.327Z,101671.78
2022-12-01T18:09:45.394Z,101673.00
2022-12-01T18:12:12.166Z,101680.75
2022-12-01T18:14:38.978Z,101680.69
2022-12-01T18:17:05.947Z,101663.00
2022-12-01T18:19:32.872Z,101664.75
2022-12-01T18:21:59.698Z,101676.38
2022-12-01T18:24:26.237Z,101681.13
2022-12-01T18:26:55.174Z,101671.72
2022-12-01T18:29:30.670Z,101678.53
2022-12-01T18:31:58.754Z,101671.09
2022-12-01T18:34:26.621Z,101676.41
2022-12-01T18:36:53.111Z,101685.31
2022-12-01T18:39:19.771Z,101681.63
2022-12-01T18:41:46.550Z,101678.13
2022-12-01T18:44:13.248Z,101687.31
2022-12-01T18:46:39.910Z,101679.00
2022-12-01T18:49:09.116Z,101684.84
2022-12-01T18:51:37.547Z,101684.16
2022-12-01T18:54:06.254Z,101677.78
2022-12-01T18:56:33.491Z,101689.47
2022-12-01T18:59:02.571Z,101684.84
2022-12-01T19:01:32.415Z,101696.03
2022-12-01T19:04:00.242Z,101685.38
2022-12-01T19:06:28.652Z,101678.00
2022-12-01T19:08:56.787Z,101678.94
2022-12-01T19:11:23.266Z,101678.41
2022-12-01T19:13:50.055Z,101682.03
2022-12-01T19:16:18.878Z,101689.41
2022-12-01T19:18:46.043Z,101678.94
2022-12-01T19:21:15.677Z,101688.00
2022-12-01T19:23:43.176Z,101683.81
2022-12-01T19:26:18.169Z,101674.78
2022-12-01T19:28:45.827Z,101678.56
2022-12-01T19:31:16.508Z,101684.66
2022-12-01T19:33:43.283Z,101681.63
2022-12-01T19:36:15.364Z,101681.63
2022-12-01T19:38:42.146Z,101676.19
2022-12-01T19:41:09.730Z,101674.56
2022-12-01T19:43:37.306Z,101683.44
2022-12-01T19:46:15.519Z,101682.97
2022-12-01T19:48:42.394Z,101674.09
2022-12-01T19:51:26.807Z,101675.44
2022-12-01T19:53:54.419Z,101667.19
2022-12-01T19:56:21.822Z,101675.94
2022-12-01T19:58:48.793Z,101675.19
2022-12-01T20:01:17.435Z,101671.44
2022-12-01T20:03:48.967Z,101663.38
2022-12-01T20:06:18.818Z,101669.38
2022-12-01T20:08:45.822Z,101670.50
2022-12-01T20:11:12.602Z,101671.69
2022-12-01T20:13:41.383Z,101675.25
2022-12-01T20:16:11.260Z,101675.53
2022-12-01T20:18:38.662Z,101679.28
2022-12-01T20:21:08.422Z,101677.13
2022-12-01T20:23:36.214Z,101676.31
2022-12-01T20:26:05.939Z,101673.19
2022-12-01T20:28:33.395Z,101675.50
2022-12-01T20:31:00.144Z,101687.25
2022-12-01T20:33:27.727Z,101682.09
2022-12-01T20:35:54.638Z,101675.47
2022-12-01T20:38:27.113Z,101682.56
2022-12-01T20:40:54.458Z,101679.53
2022-12-01T20:43:21.008Z,101678.72
2022-12-01T20:45:47.644Z,101675.81
2022-12-01T20:48:14.284Z,101684.03
2022-12-01T20:50:40.868Z,101683.41
2022-12-01T20:53:07.419Z,101678.28
2022-12-01T20:55:36.500Z,101677.66
2022-12-01T20:58:05.410Z,101692.66
2022-12-01T21:00:32.090Z,101672.56
2022-12-01T21:02:58.824Z,101669.59
2022-12-01T21:05:27.507Z,101672.69
2022-12-01T21:07:54.509Z,101672.09
2022-12-01T21:10:21.182Z,101680.84
2022-12-01T21:13:10.154Z,101679.34
2022-12-01T21:15:46.313Z,101686.88
2022-12-01T21:18:29.807Z,101674.22
2022-12-01T21:21:05.312Z,101675.31
2022-12-01T21:23:31.872Z,101676.59
2022-12-01T21:25:58.354Z,101685.38
2022-12-01T21:28:26.289Z,101686.91
2022-12-01T21:31:07.866Z,101681.00
2022-12-01T21:33:36.993Z,101678.00
2022-12-01T21:36:13.872Z,101674.22
2022-12-01T21:38:42.634Z,101679.44
2022-12-01T21:41:18.658Z,101672.88
2022-12-01T21:43:45.257Z,101669.94
2022-12-01T21:46:16.211Z,101668.47
2022-12-01T21:48:43.963Z,101669.88
2022-12-01T21:51:13.907Z,101665.00
2022-12-01T21:53:41.022Z,101665.00
2022-12-01T21:56:19.294Z,101666.84
2022-12-01T21:58:45.997Z,101671.81
2022-12-01T22:01:23.240Z,101666.97
2022-12-01T22:03:50.121Z,101657.75
2022-12-01T22:06:32.740Z,101656.25
2022-12-01T22:09:13.899Z,101663.19
2022-12-01T22:11:42.996Z,101671.75
2022-12-01T22:14:09.433Z,101666.50
2022-12-01T22:16:40.468Z,101662.22
2022-12-01T22:19:31.305Z,101664.84
2022-12-01T22:22:08.857Z,101659.47
2022-12-01T22:24:40.073Z,101670.69
2022-12-01T22:27:35.230Z,101657.56
2022-12-01T22:30:16.637Z,101655.91
2022-12-01T22:33:03.824Z,101659.47
2022-12-01T22:35:49.903Z,101663.44
2022-12-01T22:38:24.927Z,101656.50
2022-12-01T22:41:12.199Z,101659.47
2022-12-01T22:43:54.920Z,101646.59
2022-12-01T22:46:22.934Z,101650.69
2022-12-01T22:48:55.207Z,101665.16
2022-12-01T22:51:47.752Z,101648.34
2022-12-01T22:54:14.263Z,101650.28
2022-12-01T22:56:46.470Z,101651.88
2022-12-01T22:59:22.175Z,101652.03
2022-12-01T23:01:55.153Z,101645.25
2022-12-01T23:04:42.033Z,101644.28
2022-12-01T23:07:30.746Z,101644.16
2022-12-01T23:10:20.584Z,101645.16
2022-12-01T23:12:49.709Z,101634.94
2022-12-01T23:15:32.255Z,101642.25
2022-12-01T23:18:08.474Z,101640.66
2022-12-01T23:20:36.264Z,101638.09
2022-12-01T23:23:14.170Z,101644.94
2022-12-01T23:25:41.976Z,101639.63
2022-12-01T23:28:09.949Z,101635.09
2022-12-01T23:30:38.960Z,101647.53
2022-12-01T23:33:14.742Z,101637.53
2022-12-01T23:36:04.950Z,101646.03
2022-12-01T23:38:34.794Z,101647.75
2022-12-01T23:41:04.450Z,101646.47
2022-12-01T23:43:38.867Z,101636.59
2022-12-01T23:46:10.017Z,101641.97
2022-12-01T23:48:38.683Z,101636.94
2022-12-01T23:51:15.880Z,101641.97
2022-12-01T23:53:43.087Z,101640.03
2022-12-01T23:56:18.789Z,101649.16
2022-12-01T23:58:45.398Z,101645.59
